Pagrindinis puslapis
METAR-TAF:

METAR-TAF

Oro uostai :

Bernas, Šveicarija

platuma: 46-55N, ilguma: 007-30E, Aukštis: 505 m

Dabartinis oras

Ataskaita buvo paskelbta 18 minutes, ne 21:20 UTC
Vėjas 4 kt iš Rytų/Pietryčių
Temperatūra 3°C
Drėgmė 93%
Slėgis 1009 hPa
Matomumas 10 km arba daugiau
Su prošvaistėmis ne aukštis 7000 ft

METAR: LSZB 272120Z 12004KT 9999 BKN070 03/02 Q1009 NOSIG

Laikas: 22:38 (21:38 UTC)

Prognozė

Ataskaita buvo paskelbta 7 valandos ir 13 minutes, ne 14:25 UTC
Prognozė galioja nuo 27 metu 15 UTC su 27 metu 24 UTC
Vėjas 3 kt nuo kintamojo kryptimis
Matomumas 10 km arba daugiau
Išsisklaidę debesys ne aukštis 10000 ft
Su prošvaistėmis ne aukštis 12000 ft
Laikinai
nuo 27 metu 18 UTC su 27 metu 24 UTC
lietus

TAF: LSZB 271425Z 2715/2724 VRB03KT 9999 SCT100 BKN120 TEMPO 2718/2724 RA

Orai ataskaitas ir orų prognozės (METAR, TAF).

turimą stotys yra geltonos ir raudonos taškus žemėlapyje.

Perkelti pele per norėdami pamatyti stoties vardą.

Tada spustelėkite, norėdami matyti oro stebėjimo ir prognozės.

Norėdami pakeisti žemėlapį: spustelėkite ant žalios mygtukų su juodo kryžiaus žemyn,; žalią mygtuką su brūkšneliu, jei norite nutolinti; arba žalių rodyklių gretimoms žemėlapius.


METAR-TAF: